createdAt,value
2018-11-27T00:02:11.404Z,101644.31
2018-11-27T00:04:37.913Z,101649.72
2018-11-27T00:07:04.425Z,101647.02
2018-11-27T00:09:30.884Z,101650.83
2018-11-27T00:11:57.343Z,101647.84
2018-11-27T00:14:23.840Z,101654.60
2018-11-27T00:16:50.277Z,101657.59
2018-11-27T00:19:16.741Z,101664.92
2018-11-27T00:21:43.249Z,101665.20
2018-11-27T00:24:09.693Z,101671.68
2018-11-27T00:26:36.213Z,101671.39
2018-11-27T00:29:02.685Z,101672.50
2018-11-27T00:31:29.181Z,101671.16
2018-11-27T00:33:55.653Z,101672.50
2018-11-27T00:36:22.165Z,101672.79
2018-11-27T00:38:48.713Z,101674.42
2018-11-27T00:41:15.220Z,101667.92
2018-11-27T00:43:41.916Z,101671.19
2018-11-27T00:46:08.406Z,101671.44
2018-11-27T00:48:34.957Z,101679.30
2018-11-27T00:51:01.466Z,101674.19
2018-11-27T00:53:27.925Z,101675.50
2018-11-27T00:55:54.437Z,101678.73
2018-11-27T00:58:20.993Z,101679.55
2018-11-27T01:00:47.514Z,101684.42
2018-11-27T01:03:14.097Z,101680.36
2018-11-27T01:05:40.589Z,101687.91
2018-11-27T01:08:07.113Z,101683.59
2018-11-27T01:10:33.679Z,101679.26
2018-11-27T01:13:00.173Z,101679.26
2018-11-27T01:15:26.636Z,101683.56
2018-11-27T01:17:55.232Z,101684.66
2018-11-27T01:20:22.118Z,101693.59
2018-11-27T01:22:48.589Z,101696.55
2018-11-27T01:25:15.156Z,101699.50
2018-11-27T01:27:41.656Z,101698.43
2018-11-27T01:30:11.200Z,101705.72
2018-11-27T01:32:37.677Z,101700.35
2018-11-27T01:35:05.912Z,101699.78
2018-11-27T01:37:32.397Z,101701.95
2018-11-27T01:39:58.949Z,101705.19
2018-11-27T01:42:25.449Z,101704.91
2018-11-27T01:44:52.005Z,101702.23
2018-11-27T01:47:18.570Z,101703.84
2018-11-27T01:49:45.061Z,101698.43
2018-11-27T01:52:11.624Z,101704.66
2018-11-27T01:54:38.141Z,101703.30
2018-11-27T01:57:05.141Z,101710.59
2018-11-27T01:59:31.609Z,101709.00
2018-11-27T02:01:58.078Z,101713.30
2018-11-27T02:04:24.605Z,101714.41
2018-11-27T02:06:51.127Z,101717.64
2018-11-27T02:09:17.641Z,101714.66
2018-11-27T02:11:44.105Z,101721.16
2018-11-27T02:14:10.621Z,101715.75
2018-11-27T02:16:37.173Z,101719.56
2018-11-27T02:19:03.952Z,101712.52
2018-11-27T02:21:30.483Z,101716.57
2018-11-27T02:23:56.977Z,101714.16
2018-11-27T02:26:23.517Z,101710.09
2018-11-27T02:28:50.045Z,101709.28
2018-11-27T02:31:16.581Z,101709.81
2018-11-27T02:33:43.117Z,101712.80
2018-11-27T02:36:09.668Z,101713.34
2018-11-27T02:38:36.169Z,101715.79
2018-11-27T02:41:02.632Z,101716.58
2018-11-27T02:43:29.156Z,101719.84
2018-11-27T02:45:55.940Z,101713.62
2018-11-27T02:48:22.417Z,101716.33
2018-11-27T02:50:48.966Z,101717.67
2018-11-27T02:53:15.513Z,101719.56
2018-11-27T02:55:42.022Z,101717.67
2018-11-27T02:58:08.473Z,101725.79
2018-11-27T03:00:34.992Z,101723.91
2018-11-27T03:03:01.554Z,101704.53
2018-11-27T03:05:32.520Z,101727.42
2018-11-27T03:07:59.046Z,101729.56
2018-11-27T03:10:25.593Z,101729.56
2018-11-27T03:12:52.144Z,101730.38
2018-11-27T03:15:18.615Z,101733.08
2018-11-27T03:17:45.152Z,101736.06
2018-11-27T03:20:13.107Z,101733.91
2018-11-27T03:22:39.650Z,101736.06
2018-11-27T03:25:11.053Z,101735.78
2018-11-27T03:27:37.553Z,101735.81
2018-11-27T03:30:07.430Z,101736.36
2018-11-27T03:32:33.866Z,101732.55
2018-11-27T03:35:00.421Z,101737.17
2018-11-27T03:37:26.937Z,101741.47
2018-11-27T03:39:53.390Z,101739.59
2018-11-27T03:42:19.913Z,101741.72
2018-11-27T03:44:46.486Z,101746.34
2018-11-27T03:49:57.045Z,101750.41
2018-11-27T03:52:23.555Z,101747.98
2018-11-27T03:54:50.060Z,101747.98
2018-11-27T03:57:16.529Z,101754.46
2018-11-27T03:59:43.086Z,101760.69
2018-11-27T04:02:09.592Z,101756.09
2018-11-27T04:04:36.041Z,101761.50
2018-11-27T04:07:02.612Z,101766.63
2018-11-27T04:09:29.110Z,101761.22
2018-11-27T04:11:55.669Z,101762.85
2018-11-27T04:14:22.157Z,101759.86
2018-11-27T04:16:48.629Z,101759.08
2018-11-27T04:19:15.149Z,101766.63
2018-11-27T04:21:41.700Z,101772.84
2018-11-27T04:24:08.203Z,101770.67
2018-11-27T04:26:34.657Z,101777.44
2018-11-27T04:29:01.189Z,101767.73
2018-11-27T04:31:27.745Z,101769.08
2018-11-27T04:33:54.262Z,101773.13
2018-11-27T04:36:20.776Z,101774.20
2018-11-27T04:38:47.254Z,101773.38
2018-11-27T04:41:13.749Z,101772.59
2018-11-27T04:43:40.305Z,101775.02
2018-11-27T04:46:06.810Z,101774.48
2018-11-27T04:48:33.277Z,101781.48
2018-11-27T04:50:59.790Z,101781.23
2018-11-27T04:53:26.390Z,101788.25
2018-11-27T04:55:52.868Z,101787.18
2018-11-27T04:58:19.407Z,101787.44
2018-11-27T05:00:45.925Z,101783.13
2018-11-27T05:03:12.481Z,101788.25
2018-11-27T05:05:38.992Z,101785.83
2018-11-27T05:08:05.453Z,101791.48
2018-11-27T05:10:31.953Z,101792.30
2018-11-27T05:12:58.433Z,101800.95
2018-11-27T05:15:24.929Z,101800.95
2018-11-27T05:17:54.708Z,101800.95
2018-11-27T05:20:21.187Z,101807.17
2018-11-27T05:22:47.709Z,101808.23
2018-11-27T05:25:15.182Z,101811.23
2018-11-27T05:27:43.724Z,101812.83
2018-11-27T05:30:12.435Z,101823.39
2018-11-27T05:32:38.968Z,101817.70
2018-11-27T05:35:06.997Z,101822.32
2018-11-27T05:37:33.462Z,101823.39
2018-11-27T05:39:59.973Z,101822.58
2018-11-27T05:42:26.437Z,101822.32
2018-11-27T05:44:52.993Z,101823.92
2018-11-27T05:47:19.508Z,101827.16
2018-11-27T05:49:46.053Z,101821.75
2018-11-27T05:52:12.582Z,101823.11
2018-11-27T05:54:39.125Z,101830.97
2018-11-27T05:57:05.645Z,101829.87
2018-11-27T05:59:32.113Z,101827.16
2018-11-27T06:01:58.609Z,101830.69
2018-11-27T06:04:25.073Z,101834.48
2018-11-27T06:06:51.589Z,101829.64
2018-11-27T06:09:18.138Z,101838.26
2018-11-27T06:11:44.645Z,101836.66
2018-11-27T06:14:11.105Z,101842.31
2018-11-27T06:16:37.629Z,101845.02
2018-11-27T06:19:04.420Z,101842.88
2018-11-27T06:21:30.893Z,101848.28
2018-11-27T06:23:57.361Z,101848.28
2018-11-27T06:26:23.869Z,101852.34
2018-11-27T06:28:50.408Z,101848.28
2018-11-27T06:31:16.929Z,101853.16
2018-11-27T06:33:43.469Z,101856.39
2018-11-27T06:36:10.018Z,101858.28
2018-11-27T06:38:36.541Z,101858.84
2018-11-27T06:41:03.649Z,101860.20
2018-11-27T06:43:30.117Z,101862.08
2018-11-27T06:45:56.680Z,101866.95
2018-11-27T06:48:23.197Z,101861.01
2018-11-27T06:50:49.749Z,101861.27
2018-11-27T06:53:16.253Z,101864.81
2018-11-27T06:55:42.713Z,101864.25
2018-11-27T06:58:09.237Z,101865.59
2018-11-27T07:00:35.808Z,101877.51
2018-11-27T07:03:02.437Z,101886.44
2018-11-27T07:05:28.944Z,101898.03
2018-11-27T07:07:55.475Z,101912.37
2018-11-27T07:10:25.195Z,101909.95
2018-11-27T07:12:54.005Z,101914.54
2018-11-27T07:15:21.596Z,101922.36
2018-11-27T07:17:48.053Z,101920.48
2018-11-27T07:20:14.537Z,101922.92
2018-11-27T07:22:41.034Z,101928.84
2018-11-27T07:25:11.617Z,101929.94
2018-11-27T07:27:38.239Z,101933.98
2018-11-27T07:30:14.836Z,101930.19
2018-11-27T07:32:41.297Z,101931.55
2018-11-27T07:35:09.533Z,101935.59
2018-11-27T07:37:36.001Z,101941.00
2018-11-27T07:40:03.336Z,101941.28
2018-11-27T07:42:29.609Z,101941.82
2018-11-27T07:44:56.130Z,101943.70
2018-11-27T07:47:22.677Z,101948.83
2018-11-27T07:49:49.189Z,101943.99
2018-11-27T07:52:15.656Z,101948.83
2018-11-27T07:54:42.161Z,101953.70
2018-11-27T07:57:08.609Z,101946.69
2018-11-27T07:59:35.129Z,101951.29
2018-11-27T08:02:01.582Z,101954.52
2018-11-27T08:04:28.097Z,101953.70
2018-11-27T08:06:54.553Z,101957.48
2018-11-27T08:09:21.066Z,101960.75
2018-11-27T08:11:47.641Z,101962.89
2018-11-27T08:14:14.137Z,101963.70
2018-11-27T08:16:40.701Z,101966.41
2018-11-27T08:19:07.205Z,101977.22
2018-11-27T08:21:33.741Z,101976.41
2018-11-27T08:24:00.321Z,101984.23
2018-11-27T08:26:26.801Z,101986.16
2018-11-27T08:28:53.260Z,101981.02
2018-11-27T08:31:19.781Z,101988.03
2018-11-27T08:33:46.331Z,101989.38
2018-11-27T08:36:12.841Z,101990.73
2018-11-27T08:38:39.298Z,101992.34
2018-11-27T08:41:05.807Z,101996.67
2018-11-27T08:43:32.278Z,101997.75
2018-11-27T08:45:58.777Z,102000.45
2018-11-27T08:48:25.237Z,102001.30
2018-11-27T08:50:51.741Z,102000.73
2018-11-27T08:53:18.205Z,102005.08
2018-11-27T08:55:44.717Z,102009.13
2018-11-27T08:58:16.633Z,102008.56
2018-11-27T09:00:43.124Z,102015.32
2018-11-27T09:03:09.673Z,102032.89
2018-11-27T09:05:36.180Z,102025.88
2018-11-27T09:08:02.737Z,102038.05
2018-11-27T09:10:29.261Z,102038.05
2018-11-27T09:12:55.809Z,102041.29
2018-11-27T09:15:22.481Z,102050.47
2018-11-27T09:17:57.513Z,102054.52
2018-11-27T09:20:24.029Z,102052.91
2018-11-27T09:22:50.526Z,102050.21
2018-11-27T09:25:17.033Z,102055.88
2018-11-27T09:27:43.489Z,102065.90
2018-11-27T09:30:12.254Z,102065.90
2018-11-27T09:32:38.730Z,102069.13
2018-11-27T09:35:05.512Z,102072.66
2018-11-27T09:37:31.994Z,102076.97
2018-11-27T09:39:58.545Z,102070.20
2018-11-27T09:42:25.069Z,102069.95
2018-11-27T09:44:51.593Z,102074.27
2018-11-27T09:47:18.061Z,102075.61
2018-11-27T09:49:44.563Z,102074.80
2018-11-27T09:52:11.024Z,102076.97
2018-11-27T09:54:37.526Z,102082.91
2018-11-27T09:57:04.550Z,102092.91
2018-11-27T09:59:31.010Z,102085.89
2018-11-27T10:01:57.471Z,102088.03
2018-11-27T10:04:23.973Z,102082.91
2018-11-27T10:06:50.434Z,102085.61
2018-11-27T10:09:16.945Z,102085.08
2018-11-27T10:11:43.406Z,102084.26
2018-11-27T10:14:09.921Z,102082.38
2018-11-27T10:16:36.481Z,102073.73
2018-11-27T10:19:03.232Z,102077.78
2018-11-27T10:21:29.741Z,102077.78
2018-11-27T10:23:56.262Z,102073.17
2018-11-27T10:26:22.793Z,102066.97
2018-11-27T10:28:49.257Z,102062.35
2018-11-27T10:31:15.761Z,102064.27
2018-11-27T10:33:42.213Z,102068.58
2018-11-27T10:36:08.733Z,102065.88
2018-11-27T10:38:35.281Z,102063.70
2018-11-27T10:41:01.793Z,102058.86
2018-11-27T10:43:28.257Z,102061.56
2018-11-27T10:45:54.765Z,102060.22
2018-11-27T10:48:21.221Z,102056.16
2018-11-27T10:50:47.789Z,102051.54
2018-11-27T10:53:14.285Z,102058.02
2018-11-27T10:55:40.823Z,102061.01
2018-11-27T10:58:07.273Z,102057.23
2018-11-27T11:00:33.836Z,102055.59
2018-11-27T11:03:00.827Z,102063.17
2018-11-27T11:05:27.792Z,102067.23
2018-11-27T11:07:54.088Z,102056.41
2018-11-27T11:10:20.548Z,102059.12
2018-11-27T11:12:47.065Z,102061.29
2018-11-27T11:15:13.609Z,102063.72
2018-11-27T11:17:40.134Z,102060.19
2018-11-27T11:20:07.548Z,102059.38
2018-11-27T11:22:34.013Z,102064.78
2018-11-27T11:25:00.488Z,102069.12
2018-11-27T11:27:26.984Z,102065.89
2018-11-27T11:29:53.445Z,102072.64
2018-11-27T11:32:19.956Z,102072.89
2018-11-27T11:34:46.537Z,102073.98
2018-11-27T11:37:13.021Z,102077.23
2018-11-27T11:39:39.461Z,102081.55
2018-11-27T11:42:06.027Z,102088.05
2018-11-27T11:44:32.527Z,102087.23
2018-11-27T11:46:59.088Z,102086.16
2018-11-27T11:49:25.610Z,102082.89
2018-11-27T11:51:52.159Z,102091.30
2018-11-27T11:54:18.661Z,102085.59
2018-11-27T11:56:45.135Z,102088.05
2018-11-27T11:59:11.633Z,102090.22
2018-11-27T12:01:38.101Z,102089.66
2018-11-27T12:04:04.645Z,102089.12
2018-11-27T12:06:31.170Z,102092.64
2018-11-27T12:08:57.673Z,102092.64
2018-11-27T12:11:24.123Z,102088.84
2018-11-27T12:13:50.641Z,102091.30
2018-11-27T12:16:17.185Z,102094.00
2018-11-27T12:18:43.733Z,102092.08
2018-11-27T12:21:10.269Z,102086.42
2018-11-27T12:23:36.801Z,102085.06
2018-11-27T12:26:03.457Z,102081.83
2018-11-27T12:28:29.973Z,102085.06
2018-11-27T12:30:56.485Z,102089.94
2018-11-27T12:33:22.972Z,102087.23
2018-11-27T12:35:49.448Z,102083.44
2018-11-27T12:38:15.941Z,102086.67
2018-11-27T12:40:42.417Z,102087.23
2018-11-27T12:43:08.889Z,102086.67
2018-11-27T12:45:35.397Z,102081.01
2018-11-27T12:54:48.474Z,102075.88
2018-11-27T12:57:15.017Z,102076.42
2018-11-27T12:59:41.544Z,102080.75
2018-11-27T13:02:08.081Z,102081.55
2018-11-27T13:04:34.625Z,102077.48
2018-11-27T13:07:01.149Z,102074.78
2018-11-27T13:09:27.665Z,102073.72
2018-11-27T13:11:54.110Z,102077.78
2018-11-27T13:14:20.657Z,102079.94
2018-11-27T13:16:47.173Z,102089.66
2018-11-27T13:19:13.731Z,102086.69
2018-11-27T13:21:40.249Z,102092.92
2018-11-27T13:24:06.785Z,102088.30
2018-11-27T13:26:33.323Z,102088.05
2018-11-27T13:28:59.861Z,102091.57
2018-11-27T13:31:27.754Z,102088.30
2018-11-27T13:33:58.613Z,102087.77
2018-11-27T13:36:25.091Z,102086.42
2018-11-27T13:38:51.649Z,102086.41
2018-11-27T13:41:18.173Z,102093.45
2018-11-27T13:43:44.712Z,102095.34
2018-11-27T13:46:11.217Z,102093.98
2018-11-27T13:48:37.672Z,102104.27
2018-11-27T13:51:04.958Z,102106.97
2018-11-27T13:53:31.453Z,102103.20
2018-11-27T13:55:57.977Z,102106.97
2018-11-27T13:58:24.541Z,102106.16
2018-11-27T14:00:51.049Z,102109.67
2018-11-27T14:03:17.598Z,102104.55
2018-11-27T14:05:44.113Z,102105.08
2018-11-27T14:08:10.945Z,102108.60
2018-11-27T14:10:37.733Z,102110.48
2018-11-27T14:13:05.456Z,102107.78
2018-11-27T14:15:31.918Z,102105.63
2018-11-27T14:17:58.429Z,102103.45
2018-11-27T14:20:25.029Z,102106.97
2018-11-27T14:22:51.521Z,102106.96
2018-11-27T14:25:18.121Z,102101.02
2018-11-27T14:27:45.052Z,102101.02
2018-11-27T14:30:18.260Z,102104.26
2018-11-27T14:32:44.982Z,102109.66
2018-11-27T14:35:12.321Z,102117.24
2018-11-27T14:37:38.830Z,102114.28
2018-11-27T14:40:10.837Z,102118.34
2018-11-27T14:42:37.409Z,102119.69
2018-11-27T14:45:05.141Z,102121.30
2018-11-27T14:47:31.613Z,102121.31
2018-11-27T14:50:03.982Z,102122.39
2018-11-27T14:52:24.657Z,102115.07
2018-11-27T14:54:51.153Z,102118.34
2018-11-27T14:57:17.633Z,102122.11
2018-11-27T14:59:44.171Z,102127.80
2018-11-27T15:02:10.733Z,102127.23
2018-11-27T15:04:37.241Z,102123.47
2018-11-27T15:07:04.017Z,102123.47
2018-11-27T15:09:30.509Z,102125.90
2018-11-27T15:11:57.073Z,102128.05
2018-11-27T15:14:25.410Z,102128.59
2018-11-27T15:16:50.136Z,102123.73
2018-11-27T15:19:16.645Z,102122.65
2018-11-27T15:21:43.113Z,102124.55
2018-11-27T15:30:55.449Z,102129.42
2018-11-27T15:33:21.981Z,102131.30
2018-11-27T15:35:48.497Z,102132.13
2018-11-27T15:38:14.964Z,102131.30
2018-11-27T15:40:42.284Z,102130.77
2018-11-27T15:43:08.749Z,102140.23
2018-11-27T15:45:35.208Z,102140.77
2018-11-27T15:48:03.117Z,102142.12
2018-11-27T15:51:59.245Z,102147.53
2018-11-27T15:54:25.693Z,102147.23
2018-11-27T15:56:52.217Z,102143.47
2018-11-27T15:59:18.686Z,102146.72
2018-11-27T16:01:45.189Z,102148.08
2018-11-27T16:04:11.661Z,102156.45
2018-11-27T16:06:38.149Z,102155.63
2018-11-27T16:09:08.356Z,102151.03
2018-11-27T16:11:34.854Z,102156.45
2018-11-27T16:14:01.390Z,102151.03
2018-11-27T16:16:27.888Z,102147.26
2018-11-27T16:18:54.463Z,102154.84
2018-11-27T16:21:20.953Z,102150.78
2018-11-27T16:23:47.417Z,102152.13
2018-11-27T16:26:13.936Z,102152.66
2018-11-27T16:28:40.475Z,102164.83
2018-11-27T16:31:07.003Z,102171.05
2018-11-27T16:33:33.552Z,102173.47
2018-11-27T16:36:00.073Z,102168.06
2018-11-27T16:38:26.606Z,102167.80
2018-11-27T16:40:53.158Z,102168.63
2018-11-27T16:43:19.669Z,102172.39
2018-11-27T16:45:46.213Z,102169.98
2018-11-27T16:48:12.765Z,102175.38
2018-11-27T16:50:39.301Z,102173.22
2018-11-27T16:53:05.963Z,102172.69
2018-11-27T16:55:32.465Z,102174.03
2018-11-27T16:57:58.977Z,102179.16
2018-11-27T17:00:26.302Z,102185.66
2018-11-27T17:02:53.937Z,102184.56
2018-11-27T17:05:20.469Z,102187.83
2018-11-27T17:07:46.965Z,102184.56
2018-11-27T17:10:14.501Z,102187.27
2018-11-27T17:12:41.305Z,102185.63
2018-11-27T17:15:10.437Z,102182.38
2018-11-27T17:17:36.884Z,102185.38
2018-11-27T17:20:04.821Z,102191.56
2018-11-27T17:22:31.301Z,102192.09
2018-11-27T17:24:57.850Z,102194.52
2018-11-27T17:27:24.373Z,102195.31
2018-11-27T17:29:50.925Z,102194.25
2018-11-27T17:32:17.439Z,102198.56
2018-11-27T17:34:44.002Z,102197.45
2018-11-27T17:37:10.503Z,102203.67
2018-11-27T17:39:37.037Z,102204.20
2018-11-27T17:42:03.774Z,102203.33
2018-11-27T17:44:30.229Z,102203.60
2018-11-27T17:46:56.777Z,102207.92
2018-11-27T17:49:23.281Z,102209.81
2018-11-27T17:51:49.838Z,102217.09
2018-11-27T17:54:16.364Z,102224.94
2018-11-27T17:56:42.916Z,102217.61
2018-11-27T17:59:09.424Z,102214.62
2018-11-27T18:01:36.030Z,102219.77
2018-11-27T18:04:02.519Z,102211.61
2018-11-27T18:06:29.059Z,102214.58
2018-11-27T18:08:55.574Z,102226.21
2018-11-27T18:11:22.132Z,102220.23
2018-11-27T18:13:48.653Z,102228.11
2018-11-27T18:16:15.178Z,102231.86
2018-11-27T18:18:41.717Z,102234.34
2018-11-27T18:21:08.241Z,102237.05
2018-11-27T18:23:34.789Z,102232.45
2018-11-27T18:26:01.314Z,102245.73
2018-11-27T18:28:27.861Z,102240.31
2018-11-27T18:30:54.371Z,102243.28
2018-11-27T18:33:20.846Z,102250.87
2018-11-27T18:35:47.369Z,102241.67
2018-11-27T18:38:13.909Z,102246.80
2018-11-27T18:40:40.421Z,102251.13
2018-11-27T18:43:06.988Z,102248.95
2018-11-27T18:45:33.625Z,102256.54
2018-11-27T18:48:00.141Z,102258.97
2018-11-27T18:50:28.236Z,102261.42
2018-11-27T18:52:54.755Z,102261.95
2018-11-27T18:55:21.278Z,102254.65
2018-11-27T18:57:48.141Z,102260.55
2018-11-27T19:00:18.714Z,102264.62
2018-11-27T19:02:45.335Z,102266.27
2018-11-27T19:05:11.845Z,102264.12
2018-11-27T19:07:38.341Z,102260.04
2018-11-27T19:10:11.926Z,102266.00
2018-11-27T19:12:38.437Z,102269.26
2018-11-27T19:15:08.069Z,102265.98
2018-11-27T19:17:34.513Z,102270.30
2018-11-27T19:20:00.957Z,102275.16
2018-11-27T19:22:27.525Z,102275.16
2018-11-27T19:24:54.029Z,102272.38
2018-11-27T19:27:20.590Z,102274.27
2018-11-27T19:29:47.086Z,102271.56
2018-11-27T19:32:13.541Z,102266.96
2018-11-27T19:34:40.078Z,102265.05
2018-11-27T19:37:06.629Z,102263.41
2018-11-27T19:39:33.152Z,102265.80
2018-11-27T19:41:59.703Z,102267.91
2018-11-27T19:44:26.201Z,102270.06
2018-11-27T19:46:52.790Z,102273.28
2018-11-27T19:49:19.270Z,102287.37
2018-11-27T19:51:45.844Z,102294.94
2018-11-27T19:54:12.353Z,102290.05
2018-11-27T19:56:38.898Z,102296.01
2018-11-27T19:59:05.428Z,102306.81
2018-11-27T20:01:31.961Z,102311.95
2018-11-27T20:03:58.518Z,102310.57
2018-11-27T20:06:25.041Z,102310.57
2018-11-27T20:08:51.588Z,102306.25
2018-11-27T20:11:18.147Z,102313.28
2018-11-27T20:13:44.617Z,102319.49
2018-11-27T20:16:11.253Z,102317.60
2018-11-27T20:18:37.825Z,102315.70
2018-11-27T20:21:04.985Z,102324.91
2018-11-27T20:23:31.553Z,102324.34
2018-11-27T20:25:58.066Z,102332.48
2018-11-27T20:28:24.570Z,102331.66
2018-11-27T20:30:51.083Z,102330.30
2018-11-27T20:33:17.637Z,102337.34
2018-11-27T20:35:44.150Z,102328.92
2018-11-27T20:38:10.854Z,102333.23
2018-11-27T20:40:37.996Z,102326.45
2018-11-27T20:43:05.049Z,102333.77
2018-11-27T20:45:31.522Z,102333.52
2018-11-27T20:48:07.042Z,102334.70
2018-11-27T20:50:33.509Z,102328.20
2018-11-27T20:53:00.049Z,102326.02
2018-11-27T20:55:26.561Z,102319.81
2018-11-27T20:57:54.389Z,102321.38
2018-11-27T21:00:22.447Z,102313.78
2018-11-27T21:02:49.725Z,102309.75
2018-11-27T21:05:16.188Z,102306.53
2018-11-27T21:07:42.734Z,102313.31
2018-11-27T21:10:11.360Z,102310.31
2018-11-27T21:12:38.217Z,102310.35
2018-11-27T21:15:07.955Z,102312.02
2018-11-27T21:17:34.493Z,102303.63
2018-11-27T21:20:01.057Z,102302.34
2018-11-27T21:22:27.594Z,102297.20
2018-11-27T21:24:54.121Z,102306.69
2018-11-27T21:27:20.638Z,102313.48
2018-11-27T21:29:47.189Z,102322.72
2018-11-27T21:32:13.706Z,102324.91
2018-11-27T21:34:40.254Z,102331.72
2018-11-27T21:37:06.774Z,102328.75
2018-11-27T21:39:33.350Z,102332.55
2018-11-27T21:41:59.862Z,102322.56
2018-11-27T21:44:26.386Z,102318.77
2018-11-27T21:46:52.956Z,102321.22
2018-11-27T21:49:19.445Z,102319.86
2018-11-27T21:51:45.917Z,102317.98
2018-11-27T21:54:12.413Z,102328.57
2018-11-27T21:56:38.878Z,102324.25
2018-11-27T21:59:05.385Z,102320.42
2018-11-27T22:01:31.937Z,102324.77
2018-11-27T22:03:58.455Z,102318.30
2018-11-27T22:06:25.037Z,102321.56
2018-11-27T22:08:51.816Z,102316.13
2018-11-27T22:11:18.285Z,102311.81
2018-11-27T22:13:44.833Z,102326.45
2018-11-27T22:16:11.336Z,102323.20
2018-11-27T22:18:37.909Z,102323.50
2018-11-27T22:21:04.983Z,102315.36
2018-11-27T22:23:31.469Z,102316.17
2018-11-27T22:32:45.293Z,102325.67
2018-11-27T22:35:11.761Z,102328.94
2018-11-27T22:37:38.202Z,102324.63
2018-11-27T22:40:07.761Z,102325.97
2018-11-27T22:42:34.237Z,102327.06
2018-11-27T22:45:00.786Z,102328.40
2018-11-27T22:47:27.301Z,102332.46
2018-11-27T22:49:53.761Z,102335.19
2018-11-27T22:52:20.290Z,102325.16
2018-11-27T22:54:46.829Z,102331.11
2018-11-27T22:57:13.341Z,102331.41
2018-11-27T22:59:39.809Z,102338.70
2018-11-27T23:02:06.354Z,102325.72
2018-11-27T23:04:32.869Z,102326.00
2018-11-27T23:06:59.389Z,102326.53
2018-11-27T23:09:25.942Z,102332.47
2018-11-27T23:11:52.457Z,102325.19
2018-11-27T23:14:19.029Z,102323.55
2018-11-27T23:16:45.521Z,102323.83
2018-11-27T23:19:11.981Z,102328.45
2018-11-27T23:21:38.485Z,102328.96
2018-11-27T23:24:04.949Z,102326.55
2018-11-27T23:26:31.501Z,102321.14
2018-11-27T23:28:57.994Z,102320.06
2018-11-27T23:31:24.555Z,102326.00
2018-11-27T23:33:51.065Z,102327.09
2018-11-27T23:36:17.625Z,102322.22
2018-11-27T23:38:44.121Z,102332.22
2018-11-27T23:41:10.610Z,102337.91
2018-11-27T23:43:37.089Z,102339.82
2018-11-27T23:46:03.729Z,102336.00
2018-11-27T23:48:30.177Z,102338.95
2018-11-27T23:50:56.730Z,102333.01
2018-11-27T23:53:23.248Z,102327.34
2018-11-27T23:55:49.798Z,102337.34
2018-11-27T23:58:16.305Z,102337.61
